createdAt,value
2022-10-13T00:02:09.472Z,41.00
2022-10-13T00:05:12.836Z,41.80
2022-10-13T00:08:19.150Z,41.40
2022-10-13T00:11:24.885Z,41.40
2022-10-13T00:14:28.256Z,40.40
2022-10-13T00:17:33.333Z,42.00
2022-10-13T00:20:37.338Z,39.00
2022-10-13T00:23:41.496Z,40.00
2022-10-13T00:26:44.999Z,39.00
2022-10-13T00:29:55.471Z,39.00
2022-10-13T00:33:00.116Z,39.00
2022-10-13T00:36:03.406Z,39.00
2022-10-13T00:39:06.689Z,38.25
2022-10-13T00:42:13.236Z,38.75
2022-10-13T00:45:22.979Z,40.00
2022-10-13T00:48:31.446Z,38.00
2022-10-13T00:51:38.351Z,41.00
2022-10-13T00:54:41.920Z,40.40
2022-10-13T00:57:48.217Z,39.80
2022-10-13T01:00:54.004Z,41.00
2022-10-13T01:03:58.908Z,39.00
2022-10-13T01:07:03.021Z,40.00
2022-10-13T01:10:07.590Z,38.80
2022-10-13T01:13:18.316Z,39.75
2022-10-13T01:16:32.081Z,40.00
2022-10-13T01:20:11.153Z,38.00
2022-10-13T01:23:57.368Z,41.20
2022-10-13T01:27:25.843Z,38.60
2022-10-13T01:30:37.757Z,40.00
2022-10-13T01:33:46.813Z,40.00
2022-10-13T01:36:57.888Z,40.75
2022-10-13T01:40:14.782Z,41.00
2022-10-13T01:43:21.477Z,40.00
2022-10-13T01:46:31.018Z,41.00
2022-10-13T01:49:37.138Z,41.00
2022-10-13T01:52:40.825Z,38.60
2022-10-13T01:55:54.600Z,40.00
2022-10-13T01:59:02.776Z,40.00
2022-10-13T02:02:14.251Z,39.80
2022-10-13T02:05:27.629Z,39.40
2022-10-13T02:08:35.856Z,40.00
2022-10-13T02:11:45.976Z,40.00
2022-10-13T02:14:52.058Z,41.00
2022-10-13T02:17:57.262Z,40.00
2022-10-13T02:21:01.115Z,41.00
2022-10-13T02:24:04.954Z,40.00
2022-10-13T02:27:09.449Z,39.00
2022-10-13T02:30:22.218Z,40.00
2022-10-13T02:33:26.978Z,42.75
2022-10-13T02:36:30.378Z,40.00
2022-10-13T02:39:34.042Z,40.40
2022-10-13T02:42:37.339Z,40.00
2022-10-13T02:45:40.601Z,40.00
2022-10-13T02:48:45.202Z,40.50
2022-10-13T02:51:48.714Z,39.60
2022-10-13T02:54:51.994Z,39.60
2022-10-13T02:57:55.319Z,42.00
2022-10-13T03:01:07.876Z,41.00
2022-10-13T03:04:13.105Z,42.00
2022-10-13T03:07:17.014Z,41.60
2022-10-13T03:10:20.766Z,39.00
2022-10-13T03:13:27.567Z,38.00
2022-10-13T03:16:37.293Z,40.00
2022-10-13T03:19:47.656Z,39.00
2022-10-13T03:22:54.808Z,38.00
2022-10-13T03:25:58.028Z,36.75
2022-10-13T03:29:01.299Z,39.00
2022-10-13T03:32:04.859Z,38.60
2022-10-13T03:35:10.211Z,39.33
2022-10-13T03:38:13.419Z,39.60
2022-10-13T03:41:18.791Z,37.50
2022-10-13T03:44:26.569Z,41.25
2022-10-13T03:47:29.853Z,40.00
2022-10-13T03:50:34.499Z,38.00
2022-10-13T03:53:38.756Z,39.50
2022-10-13T03:56:45.410Z,38.80
2022-10-13T03:59:49.257Z,37.80
2022-10-13T04:02:52.488Z,38.00
2022-10-13T04:05:57.137Z,38.00
2022-10-13T04:09:00.437Z,38.00
2022-10-13T04:12:03.670Z,38.75
2022-10-13T04:15:08.155Z,40.00
2022-10-13T04:18:12.873Z,38.80
2022-10-13T04:21:17.789Z,40.00
2022-10-13T04:24:21.509Z,39.00
2022-10-13T04:27:25.175Z,36.60
2022-10-13T04:30:28.499Z,37.00
2022-10-13T04:33:32.232Z,38.00
2022-10-13T04:36:37.050Z,37.75
2022-10-13T04:39:40.359Z,38.20
2022-10-13T04:42:44.688Z,37.60
2022-10-13T04:45:48.457Z,38.40
2022-10-13T04:48:52.452Z,38.00
2022-10-13T04:51:59.363Z,36.80
2022-10-13T04:55:02.616Z,38.20
2022-10-13T04:58:05.922Z,39.00
2022-10-13T05:01:16.407Z,40.67
2022-10-13T05:04:22.248Z,37.00
2022-10-13T05:07:26.801Z,38.00
2022-10-13T05:10:34.557Z,38.00
2022-10-13T05:13:39.509Z,38.00
2022-10-13T05:16:42.743Z,38.00
2022-10-13T05:19:45.988Z,36.00
2022-10-13T05:22:50.576Z,36.00
2022-10-13T05:25:54.138Z,36.75
2022-10-13T05:28:58.733Z,37.00
2022-10-13T05:32:06.486Z,35.00
2022-10-13T05:35:10.781Z,36.00
2022-10-13T05:38:20.437Z,36.00
2022-10-13T05:41:29.894Z,35.60
2022-10-13T05:44:33.191Z,35.00
2022-10-13T05:47:36.388Z,37.80
2022-10-13T05:50:39.677Z,36.00
2022-10-13T05:53:51.916Z,36.00
2022-10-13T05:57:00.569Z,36.00
2022-10-13T06:00:10.554Z,35.00
2022-10-13T06:03:20.592Z,35.00
2022-10-13T06:06:29.042Z,37.00
2022-10-13T06:09:38.175Z,35.00
2022-10-13T06:12:41.720Z,38.00
2022-10-13T06:15:45.563Z,35.00
2022-10-13T06:18:50.343Z,36.00
2022-10-13T06:21:53.655Z,38.00
2022-10-13T06:24:58.620Z,35.00
2022-10-13T06:28:01.894Z,38.80
2022-10-13T06:31:06.709Z,39.60
2022-10-13T06:34:10.036Z,35.20
2022-10-13T06:37:13.301Z,37.00
2022-10-13T06:40:18.369Z,36.00
2022-10-13T06:43:21.849Z,37.40
2022-10-13T06:46:27.117Z,36.00
2022-10-13T06:49:30.433Z,36.40
2022-10-13T06:52:33.933Z,38.00
2022-10-13T06:55:38.534Z,35.80
2022-10-13T06:58:41.931Z,41.00
2022-10-13T07:01:45.268Z,38.00
2022-10-13T07:04:49.104Z,38.80
2022-10-13T07:07:53.737Z,35.00
2022-10-13T07:10:58.888Z,35.00
2022-10-13T07:17:10.473Z,35.00
2022-10-13T07:20:13.651Z,35.00
2022-10-13T07:23:16.863Z,36.00
2022-10-13T07:26:21.773Z,37.25
2022-10-13T07:29:25.017Z,36.00
2022-10-13T07:32:28.579Z,35.00
2022-10-13T07:35:31.792Z,36.40
2022-10-13T07:38:36.070Z,36.00
2022-10-13T07:41:41.329Z,36.00
2022-10-13T07:44:44.772Z,35.50
2022-10-13T07:47:48.434Z,37.00
2022-10-13T07:50:51.685Z,35.00
2022-10-13T07:53:55.493Z,35.60
2022-10-13T07:57:00.266Z,35.40
2022-10-13T08:00:06.160Z,33.00
2022-10-13T08:03:15.642Z,32.00
2022-10-13T08:06:18.964Z,32.60
2022-10-13T08:09:22.683Z,33.00
2022-10-13T08:12:27.452Z,32.00
2022-10-13T08:15:30.749Z,32.00
2022-10-13T08:18:34.059Z,32.75
2022-10-13T08:21:57.655Z,30.00
2022-10-13T08:25:02.375Z,30.00
2022-10-13T08:28:08.751Z,32.00
2022-10-13T08:31:18.492Z,30.00
2022-10-13T08:34:22.795Z,30.00
2022-10-13T08:37:28.492Z,29.50
2022-10-13T08:40:33.437Z,30.00
2022-10-13T08:43:49.090Z,30.00
2022-10-13T08:47:11.596Z,30.20
2022-10-13T08:50:17.586Z,28.20
2022-10-13T08:53:28.820Z,30.00
2022-10-13T08:56:34.755Z,28.60
2022-10-13T08:59:39.839Z,25.20
2022-10-13T09:02:45.246Z,27.75
2022-10-13T09:06:00.858Z,26.00
2022-10-13T09:09:07.233Z,28.60
2022-10-13T09:12:13.727Z,28.75
2022-10-13T09:15:19.741Z,25.20
2022-10-13T09:18:30.834Z,25.00
2022-10-13T09:21:34.124Z,25.00
2022-10-13T09:24:37.386Z,25.67
2022-10-13T09:27:46.725Z,27.00
2022-10-13T09:31:02.487Z,27.40
2022-10-13T09:34:17.125Z,28.00
2022-10-13T09:37:22.602Z,30.00
2022-10-13T09:40:26.063Z,27.40
2022-10-13T09:43:32.033Z,27.00
2022-10-13T09:46:40.562Z,30.00
2022-10-13T09:49:45.145Z,30.00
2022-10-13T09:52:49.358Z,27.60
2022-10-13T09:56:09.748Z,30.00
2022-10-13T09:59:25.395Z,29.00
2022-10-13T10:02:37.211Z,30.00
2022-10-13T10:05:48.655Z,29.40
2022-10-13T10:09:05.042Z,28.75
2022-10-13T10:12:16.802Z,25.00
2022-10-13T10:15:24.472Z,28.40
2022-10-13T10:18:37.874Z,25.40
2022-10-13T10:21:47.937Z,27.00
2022-10-13T10:25:02.025Z,26.80
2022-10-13T10:28:28.281Z,26.00
2022-10-13T10:31:47.394Z,24.00
2022-10-13T10:34:58.266Z,22.60
2022-10-13T10:38:19.766Z,21.80
2022-10-13T10:41:39.833Z,21.40
2022-10-13T10:44:48.071Z,22.00
2022-10-13T10:47:56.461Z,19.00
2022-10-13T10:51:02.956Z,22.75
2022-10-13T10:54:20.955Z,20.00
2022-10-13T10:57:30.357Z,21.60
2022-10-13T11:00:39.305Z,22.00
2022-10-13T11:03:52.255Z,22.00
2022-10-13T11:06:57.520Z,22.40
2022-10-13T11:10:18.953Z,22.00
2022-10-13T11:13:22.401Z,21.00
2022-10-13T11:16:30.562Z,22.00
2022-10-13T11:19:36.204Z,21.00
2022-10-13T11:22:40.898Z,20.00
2022-10-13T11:25:45.694Z,21.00
2022-10-13T11:28:50.466Z,21.60
2022-10-13T11:31:55.925Z,19.60
2022-10-13T11:35:20.059Z,20.00
2022-10-13T11:38:35.965Z,17.00
2022-10-13T11:41:48.578Z,19.00
2022-10-13T11:44:57.263Z,19.50
2022-10-13T11:48:27.329Z,20.00
2022-10-13T11:51:37.307Z,20.00
2022-10-13T11:54:50.911Z,19.00
2022-10-13T11:58:09.347Z,19.40
2022-10-13T12:01:15.660Z,17.20
2022-10-13T12:04:22.947Z,18.00
2022-10-13T12:07:33.408Z,16.00
2022-10-13T12:10:39.031Z,19.00
2022-10-13T12:13:47.975Z,16.00
2022-10-13T12:20:01.517Z,16.00
2022-10-13T12:23:05.188Z,17.60
2022-10-13T12:26:16.771Z,16.00
2022-10-13T12:29:24.399Z,13.20
2022-10-13T12:32:29.670Z,12.20
2022-10-13T12:35:35.408Z,13.80
2022-10-13T12:38:39.873Z,14.00
2022-10-13T12:41:46.850Z,13.40
2022-10-13T12:44:50.169Z,13.00
2022-10-13T12:47:54.760Z,14.40
2022-10-13T12:51:18.419Z,13.00
2022-10-13T12:54:25.633Z,11.60
2022-10-13T12:57:36.013Z,12.00
2022-10-13T13:00:39.647Z,13.00
2022-10-13T13:03:45.295Z,12.40
2022-10-13T13:06:56.513Z,11.80
2022-10-13T13:10:16.029Z,11.60
2022-10-13T13:13:25.010Z,10.00
2022-10-13T13:16:28.255Z,9.00
2022-10-13T13:19:33.220Z,8.40
2022-10-13T13:25:44.716Z,11.00
2022-10-13T13:28:50.851Z,10.00
2022-10-13T13:31:54.061Z,10.75
2022-10-13T13:34:57.359Z,10.40
2022-10-13T13:38:01.156Z,9.00
2022-10-13T13:41:04.335Z,9.80
2022-10-13T13:44:08.916Z,10.75
2022-10-13T13:47:18.250Z,9.80
2022-10-13T13:50:26.591Z,12.00
2022-10-13T13:53:33.157Z,10.20
2022-10-13T13:56:36.586Z,12.00
2022-10-13T13:59:44.613Z,10.75
2022-10-13T14:02:49.638Z,10.00
2022-10-13T14:05:52.917Z,11.00
2022-10-13T14:08:56.192Z,10.00
2022-10-13T14:12:00.099Z,10.00
2022-10-13T14:15:05.507Z,10.60
2022-10-13T14:18:08.956Z,9.00
2022-10-13T14:21:13.014Z,11.00
2022-10-13T14:24:16.245Z,10.00
2022-10-13T14:27:19.540Z,9.00
2022-10-13T14:30:24.085Z,10.40
2022-10-13T14:33:27.562Z,8.00
2022-10-13T14:36:31.205Z,9.00
2022-10-13T14:39:34.728Z,9.40
2022-10-13T14:42:39.301Z,9.00
2022-10-13T14:45:45.103Z,9.00
2022-10-13T14:48:50.350Z,9.25
2022-10-13T14:51:53.613Z,11.40
2022-10-13T14:54:56.982Z,10.00
2022-10-13T14:58:00.611Z,12.80
2022-10-13T15:01:06.479Z,11.00
2022-10-13T15:04:09.954Z,11.33
2022-10-13T15:07:14.310Z,11.00
2022-10-13T15:10:17.657Z,12.40
2022-10-13T15:13:20.880Z,14.00
2022-10-13T15:16:29.062Z,10.00
2022-10-13T15:19:32.626Z,11.00
2022-10-13T15:22:35.922Z,11.20
2022-10-13T15:25:39.613Z,13.00
2022-10-13T15:28:47.930Z,14.00
2022-10-13T15:31:52.657Z,12.40
2022-10-13T15:34:56.430Z,12.00
2022-10-13T15:38:01.507Z,14.00
2022-10-13T15:41:06.937Z,14.40
2022-10-13T15:44:10.561Z,14.40
2022-10-13T15:47:17.301Z,13.80
2022-10-13T15:50:20.913Z,12.60
2022-10-13T15:53:24.740Z,14.75
2022-10-13T15:56:28.174Z,15.00
2022-10-13T15:59:31.571Z,16.50
2022-10-13T16:02:37.175Z,12.00
2022-10-13T16:05:41.943Z,15.00
2022-10-13T16:08:45.150Z,16.00
2022-10-13T16:11:48.414Z,16.50
2022-10-13T16:14:51.805Z,16.00
2022-10-13T16:17:56.538Z,16.60
2022-10-13T16:20:59.839Z,16.00
2022-10-13T16:24:05.024Z,16.40
2022-10-13T16:27:08.751Z,16.00
2022-10-13T16:30:13.396Z,19.40
2022-10-13T16:33:18.082Z,18.40
2022-10-13T16:36:21.559Z,20.50
2022-10-13T16:39:28.435Z,18.00
2022-10-13T16:42:33.014Z,17.75
2022-10-13T16:45:58.505Z,19.00
2022-10-13T16:49:02.617Z,18.00
2022-10-13T16:52:06.383Z,18.60
2022-10-13T16:55:10.418Z,21.25
2022-10-13T16:58:14.087Z,20.80
2022-10-13T17:01:17.504Z,17.40
2022-10-13T17:04:22.437Z,21.00
2022-10-13T17:07:25.774Z,22.50
2022-10-13T17:10:29.465Z,23.00
2022-10-13T17:13:37.687Z,25.00
2022-10-13T17:16:41.182Z,23.00
2022-10-13T17:19:45.743Z,21.75
2022-10-13T17:22:49.032Z,22.50
2022-10-13T17:25:54.522Z,23.00
2022-10-13T17:28:57.875Z,24.60
2022-10-13T17:32:01.570Z,25.40
2022-10-13T17:35:07.120Z,25.00
2022-10-13T17:38:10.497Z,25.25
2022-10-13T17:41:13.996Z,28.40
2022-10-13T17:44:23.685Z,26.80
2022-10-13T17:47:27.097Z,26.00
2022-10-13T17:50:31.764Z,28.60
2022-10-13T17:53:35.301Z,28.80
2022-10-13T17:56:38.901Z,30.00
2022-10-13T17:59:42.171Z,32.00
2022-10-13T18:02:45.396Z,32.00
2022-10-13T18:05:51.126Z,29.50
2022-10-13T18:08:54.624Z,31.33
2022-10-13T18:11:58.548Z,32.00
2022-10-13T18:15:01.808Z,32.00
2022-10-13T18:18:05.330Z,31.60
2022-10-13T18:21:11.427Z,32.00
2022-10-13T18:24:14.910Z,33.40
2022-10-13T18:27:18.596Z,33.00
2022-10-13T18:30:22.568Z,32.00
2022-10-13T18:33:26.025Z,36.00
2022-10-13T18:36:32.622Z,32.60
2022-10-13T18:39:36.341Z,33.25
2022-10-13T18:42:42.302Z,35.00
2022-10-13T18:45:47.856Z,32.00
2022-10-13T18:48:51.419Z,33.60
2022-10-13T18:51:56.042Z,33.40
2022-10-13T18:54:59.300Z,33.00
2022-10-13T18:58:02.805Z,33.80
2022-10-13T19:01:08.080Z,35.80
2022-10-13T19:04:14.765Z,36.00
2022-10-13T19:07:19.764Z,36.40
2022-10-13T19:10:23.308Z,36.25
2022-10-13T19:13:27.944Z,36.60
2022-10-13T19:16:32.812Z,36.50
2022-10-13T19:19:36.755Z,37.50
2022-10-13T19:22:41.444Z,38.00
2022-10-13T19:25:45.628Z,38.40
2022-10-13T19:28:49.628Z,38.00
2022-10-13T19:31:52.926Z,39.50
2022-10-13T19:34:56.289Z,38.00
2022-10-13T19:38:00.926Z,36.40
2022-10-13T19:41:07.778Z,40.00
2022-10-13T19:44:11.201Z,39.00
2022-10-13T19:47:14.531Z,39.00
2022-10-13T19:50:18.099Z,39.00
2022-10-13T19:53:22.985Z,38.60
2022-10-13T19:56:28.300Z,40.20
2022-10-13T19:59:32.557Z,40.00
2022-10-13T20:02:35.746Z,43.00
2022-10-13T20:05:39.487Z,40.00
2022-10-13T20:08:45.320Z,43.00
2022-10-13T20:11:49.870Z,42.40
2022-10-13T20:14:53.204Z,38.20
2022-10-13T20:17:56.417Z,39.75
2022-10-13T20:21:03.388Z,39.60
2022-10-13T20:24:08.738Z,42.00
2022-10-13T20:27:12.242Z,40.00
2022-10-13T20:30:15.813Z,41.00
2022-10-13T20:33:19.321Z,41.00
2022-10-13T20:36:22.678Z,41.00
2022-10-13T20:39:27.322Z,41.00
2022-10-13T20:42:31.035Z,41.00
2022-10-13T20:45:34.345Z,40.00
2022-10-13T20:49:05.592Z,41.00
2022-10-13T20:52:03.519Z,39.60
2022-10-13T20:55:08.697Z,39.20
2022-10-13T20:58:13.140Z,40.20
2022-10-13T21:01:17.000Z,38.00
2022-10-13T21:04:20.340Z,37.00
2022-10-13T21:07:24.303Z,37.40
2022-10-13T21:10:29.105Z,38.00
2022-10-13T21:13:32.467Z,35.80
2022-10-13T21:16:36.555Z,36.00
2022-10-13T21:19:44.828Z,36.40
2022-10-13T21:22:48.048Z,38.00
2022-10-13T21:25:53.209Z,39.00
2022-10-13T21:28:56.917Z,37.60
2022-10-13T21:32:00.431Z,36.00
2022-10-13T21:35:03.742Z,37.00
2022-10-13T21:38:07.375Z,37.00
2022-10-13T21:41:15.783Z,36.60
2022-10-13T21:44:18.985Z,37.80
2022-10-13T21:47:22.438Z,37.00
2022-10-13T21:50:26.196Z,38.00
2022-10-13T21:53:29.466Z,35.40
2022-10-13T21:56:35.191Z,38.00
2022-10-13T21:59:39.621Z,38.00
2022-10-13T22:02:43.074Z,35.00
2022-10-13T22:05:46.717Z,36.00
2022-10-13T22:08:52.101Z,35.00
2022-10-13T22:11:59.170Z,35.40
2022-10-13T22:15:02.401Z,32.50
2022-10-13T22:18:05.776Z,33.00
2022-10-13T22:21:13.141Z,36.00
2022-10-13T22:24:18.421Z,35.20
2022-10-13T22:27:23.384Z,35.00
2022-10-13T22:30:27.064Z,35.00
2022-10-13T22:33:30.406Z,34.80
2022-10-13T22:36:33.903Z,35.00
2022-10-13T22:39:37.205Z,36.40
2022-10-13T22:42:46.344Z,42.80
2022-10-13T22:45:53.506Z,37.60
2022-10-13T22:48:58.098Z,38.00
2022-10-13T22:52:01.358Z,42.00
2022-10-13T22:55:04.798Z,41.00
2022-10-13T22:58:10.523Z,42.00
2022-10-13T23:01:16.373Z,41.40
2022-10-13T23:04:19.548Z,40.00
2022-10-13T23:07:23.262Z,36.20
2022-10-13T23:10:27.228Z,39.67
2022-10-13T23:13:32.311Z,39.00
2022-10-13T23:16:36.198Z,38.00
2022-10-13T23:19:39.410Z,36.60
2022-10-13T23:22:42.740Z,36.50
2022-10-13T23:25:46.104Z,37.25
2022-10-13T23:28:51.017Z,37.80
2022-10-13T23:31:54.409Z,38.00
2022-10-13T23:34:57.909Z,36.00
2022-10-13T23:38:05.524Z,37.80
2022-10-13T23:41:13.813Z,38.00
2022-10-13T23:44:19.811Z,37.33
2022-10-13T23:47:24.227Z,36.60
2022-10-13T23:50:27.562Z,38.00
2022-10-13T23:53:35.079Z,36.00
2022-10-13T23:56:39.572Z,38.00
2022-10-13T23:59:44.248Z,37.00
